Time;durP1;ratioP1;P1;durP2;ratioP2;P2;SDS_P1;SDS_P2;PMS_P1;PMS_P2;Temp;Humidity;BMP_temperature;BMP_pressure;BME280_temperature;BME280_humidity;BME280_pressure;Samples;Min_cycle;Max_cycle;Signal;HPM_P1;HPM_P2
2022/04/16 00:00:08;;;;;;;0.70;0.70;;;;;;;20.59;37.44;97655.28;10603559;27;20134;-52
2022/04/16 00:05:37;;;;;;;0.80;0.80;;;;;;;20.58;37.38;97651.78;10584001;27;20044;-54
2022/04/16 00:10:57;;;;;;;0.80;0.80;;;;;;;20.57;37.17;97666.41;10591916;27;20044;-54
2022/04/16 00:16:20;;;;;;;1.00;1.00;;;;;;;20.56;37.35;97667.50;10583894;27;20050;-54
2022/04/16 00:21:39;;;;;;;1.10;1.00;;;;;;;20.54;37.29;97667.84;10584727;27;20399;-56
2022/04/16 00:26:58;;;;;;;1.10;1.00;;;;;;;20.54;37.41;97683.25;10581230;27;21776;-55
2022/04/16 00:32:19;;;;;;;1.20;1.10;;;;;;;20.52;37.28;97672.75;10590665;27;20050;-55
2022/04/16 00:37:39;;;;;;;1.25;1.15;;;;;;;20.51;37.35;97679.25;10608039;27;20051;-55
2022/04/16 00:43:00;;;;;;;2.03;1.45;;;;;;;20.51;37.30;97681.19;10586269;27;20101;-56
2022/04/16 00:48:20;;;;;;;1.35;1.25;;;;;;;20.50;37.38;97679.56;10585757;27;20051;-56
2022/04/16 00:53:40;;;;;;;1.50;1.40;;;;;;;20.47;37.43;97669.38;10615731;27;20044;-54
2022/04/16 00:59:01;;;;;;;1.63;1.52;;;;;;;20.48;37.32;97660.13;10585215;27;20482;-56
2022/04/16 01:04:20;;;;;;;1.50;1.40;;;;;;;20.45;37.34;97656.16;10590876;27;20055;-56
2022/04/16 01:09:41;;;;;;;1.70;1.60;;;;;;;20.44;37.32;97656.44;10598791;27;20051;-54
2022/04/16 01:15:00;;;;;;;2.00;1.90;;;;;;;20.43;37.26;97663.00;10623015;27;20043;-55
2022/04/16 01:20:20;;;;;;;1.90;1.80;;;;;;;20.41;37.32;97679.53;10586490;27;20056;-52
2022/04/16 01:25:39;;;;;;;2.05;1.95;;;;;;;20.40;37.33;97687.94;10603040;27;20041;-56
2022/04/16 01:30:59;;;;;;;1.80;1.70;;;;;;;20.39;37.29;97686.38;10623044;27;20062;-55
2022/04/16 01:36:18;;;;;;;1.95;1.85;;;;;;;20.38;37.35;97684.75;10616271;27;20047;-55
2022/04/16 01:41:40;;;;;;;2.28;2.08;;;;;;;20.36;37.32;97690.47;10616543;27;20084;-55
2022/04/16 01:47:00;;;;;;;2.10;2.00;;;;;;;20.36;37.31;97701.28;10591580;27;20058;-56
2022/04/16 01:52:19;;;;;;;1.95;1.85;;;;;;;20.33;37.25;97702.72;10596829;27;20073;-53
2022/04/16 01:57:39;;;;;;;2.10;1.90;;;;;;;20.31;37.29;97696.81;10611768;27;20054;-55
2022/04/16 02:02:58;;;;;;;2.50;2.30;;;;;;;20.30;37.24;97708.72;10600753;27;20474;-55
2022/04/16 02:08:17;;;;;;;2.22;2.03;;;;;;;20.29;37.43;97709.06;10609460;27;20070;-55
2022/04/16 02:13:37;;;;;;;2.22;2.08;;;;;;;20.28;37.16;97712.84;10604300;27;20055;-56
2022/04/16 02:18:57;;;;;;;2.50;2.30;;;;;;;20.26;37.28;97702.31;10599824;27;20557;-55
2022/04/16 02:24:17;;;;;;;2.58;2.10;;;;;;;20.25;37.35;97705.38;10595362;27;20047;-54
2022/04/16 02:29:36;;;;;;;2.17;2.00;;;;;;;20.24;37.37;97709.97;10608551;27;20070;-55
2022/04/16 02:34:56;;;;;;;2.40;2.20;;;;;;;20.22;37.32;97719.50;10612148;27;20050;-56
2022/04/16 02:40:16;;;;;;;2.40;2.25;;;;;;;20.21;37.30;97715.16;10609203;27;20115;-56
2022/04/16 02:51:14;;;;;;;2.60;2.40;;;;;;;20.19;37.21;97717.38;10590607;27;20047;-55
2022/04/16 02:56:33;;;;;;;3.10;2.80;;;;;;;20.15;37.35;97709.91;10601209;27;20051;-56
2022/04/16 03:01:54;;;;;;;2.83;2.63;;;;;;;20.15;37.25;97709.09;10585453;27;20055;-55
2022/04/16 03:07:13;;;;;;;2.78;2.58;;;;;;;20.15;37.26;97714.50;10588724;27;20078;-55
2022/04/16 03:12:51;;;;;;;2.65;2.45;;;;;;;20.11;37.28;97716.19;10613979;27;20066;-55
2022/04/16 03:18:10;;;;;;;2.83;2.63;;;;;;;20.11;37.20;97717.03;10585794;27;20596;-55
2022/04/16 03:23:30;;;;;;;2.95;2.67;;;;;;;20.09;37.33;97718.41;10623876;27;20095;-55
2022/04/16 03:28:50;;;;;;;2.72;2.53;;;;;;;20.07;37.24;97718.75;10593747;27;20054;-55
2022/04/16 03:34:10;;;;;;;3.08;2.78;;;;;;;20.07;37.30;97721.44;10604948;27;20043;-56
2022/04/16 03:39:29;;;;;;;2.72;2.53;;;;;;;20.04;37.31;97721.25;10604539;27;20047;-55
2022/04/16 03:44:48;;;;;;;2.80;2.60;;;;;;;20.03;37.18;97734.00;10590128;27;20043;-54
2022/04/16 03:50:08;;;;;;;2.67;2.47;;;;;;;20.02;37.27;97734.28;10585029;27;20056;-56
2022/04/16 04:01:08;;;;;;;2.88;2.67;;;;;;;19.99;37.20;97735.66;10582586;27;20048;-55
2022/04/16 04:06:27;;;;;;;2.58;2.38;;;;;;;19.98;37.26;97734.09;10587421;27;20479;-55
2022/04/16 04:11:47;;;;;;;2.40;2.20;;;;;;;19.97;37.14;97740.59;10581700;27;20043;-54
2022/04/16 04:17:08;;;;;;;2.45;2.25;;;;;;;19.94;37.23;97733.88;10606085;27;20051;-54
2022/04/16 04:22:28;;;;;;;2.47;2.22;;;;;;;19.93;37.28;97748.53;10579624;27;20092;-55
2022/04/16 04:27:47;;;;;;;2.38;2.17;;;;;;;19.92;37.11;97752.31;10581191;27;20052;-56
2022/04/16 04:33:07;;;;;;;2.17;1.98;;;;;;;19.90;37.15;97748.34;10636851;27;20043;-55
2022/04/16 04:38:27;;;;;;;2.13;2.03;;;;;;;19.89;37.19;97760.25;10578304;27;20062;-55
2022/04/16 04:43:46;;;;;;;2.38;2.17;;;;;;;19.89;37.21;97768.34;10600384;27;20067;-55
2022/04/16 04:49:07;;;;;;;2.08;1.90;;;;;;;19.86;37.14;97775.19;10599503;27;20058;-56
2022/04/16 04:54:26;;;;;;;2.15;1.98;;;;;;;19.86;37.07;97777.09;10585772;27;20088;-54
2022/04/16 04:59:46;;;;;;;2.30;2.10;;;;;;;19.86;37.01;97790.59;10595108;27;20040;-55
2022/04/16 05:05:06;;;;;;;2.25;2.00;;;;;;;19.85;36.95;97795.19;10581566;27;20048;-53
2022/04/16 05:10:25;;;;;;;2.10;1.90;;;;;;;19.86;36.92;97796.00;10597504;27;20080;-52
2022/04/16 05:15:44;;;;;;;2.17;2.03;;;;;;;19.87;36.92;97819.22;10597464;27;20049;-55
2022/04/16 05:21:04;;;;;;;2.20;2.00;;;;;;;19.86;36.80;97809.53;10588221;27;20116;-55
2022/04/16 05:26:23;;;;;;;2.13;1.90;;;;;;;19.86;36.68;97821.16;10593718;27;20039;-53
2022/04/16 05:31:43;;;;;;;2.00;1.90;;;;;;;19.86;36.83;97829.25;10599180;27;20061;-55
2022/04/16 05:37:03;;;;;;;3.15;2.00;;;;;;;19.87;36.56;97836.25;10578974;27;20494;-56
2022/04/16 05:42:23;;;;;;;1.70;1.58;;;;;;;19.88;36.54;97840.56;10589608;27;20060;-53
2022/04/16 05:47:43;;;;;;;2.78;1.73;;;;;;;19.89;36.48;97844.06;10584074;27;20055;-55
2022/04/16 05:53:08;;;;;;;1.45;1.35;;;;;;;19.89;36.19;97855.69;10578158;27;20040;-55
2022/04/16 05:58:27;;;;;;;1.50;1.40;;;;;;;19.91;36.30;97861.59;10589959;27;20402;-56
2022/04/16 06:03:47;;;;;;;1.58;1.48;;;;;;;19.92;36.22;97871.31;10593213;27;20043;-55
2022/04/16 06:09:06;;;;;;;1.63;1.52;;;;;;;19.95;36.08;97869.91;10612086;27;20039;-52
2022/04/16 06:14:25;;;;;;;1.40;1.30;;;;;;;19.97;36.02;97875.81;10627311;27;20047;-54
2022/04/16 06:19:45;;;;;;;1.42;1.33;;;;;;;19.99;36.06;97899.88;10650915;27;20076;-55
2022/04/16 06:25:06;;;;;;;1.35;1.25;;;;;;;20.02;35.86;97883.84;10641972;27;20048;-55
2022/04/16 06:30:25;;;;;;;1.35;1.25;;;;;;;20.05;35.76;97890.53;10622148;27;20074;-53
2022/04/16 06:35:45;;;;;;;1.60;1.05;;;;;;;20.06;35.68;97898.38;10606829;27;20123;-55
2022/04/16 06:41:05;;;;;;;1.40;1.30;;;;;;;20.10;35.63;97901.28;10615666;27;20055;-52
2022/04/16 06:46:25;;;;;;;1.33;1.23;;;;;;;20.14;35.60;97913.88;10604826;27;20055;-55
2022/04/16 06:51:44;;;;;;;1.25;1.17;;;;;;;20.17;35.42;97915.22;10612261;27;20478;-55
2022/04/16 06:57:04;;;;;;;1.02;1.00;;;;;;;20.22;35.41;97917.00;10611455;27;20043;-55
2022/04/16 07:02:23;;;;;;;1.20;1.15;;;;;;;20.25;35.56;97921.81;10599136;27;20052;-51
2022/04/16 07:07:43;;;;;;;1.20;1.10;;;;;;;20.30;35.46;97932.53;10620990;27;20051;-56
2022/04/16 07:13:02;;;;;;;2.13;1.27;;;;;;;20.33;35.48;97938.16;10603683;27;20047;-54
2022/04/16 07:18:23;;;;;;;1.10;1.00;;;;;;;20.35;35.37;97944.06;10612205;27;20050;-55
2022/04/16 07:23:42;;;;;;;2.28;1.40;;;;;;;20.39;35.24;97949.69;10622077;27;20062;-54
2022/04/16 07:29:02;;;;;;;1.65;1.25;;;;;;;20.42;35.18;97964.50;10620626;27;20055;-51
2022/04/16 07:34:22;;;;;;;1.48;1.08;;;;;;;20.46;34.95;97955.47;10619935;27;20103;-52
2022/04/16 07:39:41;;;;;;;1.23;1.13;;;;;;;20.49;34.91;97945.97;10613648;27;20048;-54
2022/04/16 07:45:01;;;;;;;1.30;1.20;;;;;;;20.53;34.85;97968.63;10613555;27;20581;-51
2022/04/16 07:50:21;;;;;;;1.30;1.20;;;;;;;20.58;34.58;97981.22;10619787;27;20031;-54
2022/04/16 07:55:41;;;;;;;1.58;1.40;;;;;;;20.61;34.57;97977.97;10605747;27;20055;-55
2022/04/16 08:01:01;;;;;;;1.38;1.23;;;;;;;20.64;34.64;97972.75;10590061;27;20085;-56
2022/04/16 08:06:20;;;;;;;1.20;1.10;;;;;;;20.68;34.51;97976.44;10622941;27;20043;-56
2022/04/16 08:11:40;;;;;;;1.35;1.10;;;;;;;20.73;34.57;97998.00;10601105;27;21838;-54
2022/04/16 08:16:59;;;;;;;1.30;1.10;;;;;;;20.77;34.46;97997.41;10595729;27;20052;-52
2022/04/16 08:22:21;;;;;;;1.20;1.10;;;;;;;20.80;34.63;98000.31;10581736;27;20162;-53
2022/04/16 08:27:42;;;;;;;2.13;1.13;;;;;;;20.83;34.60;98004.31;10585087;27;20066;-55
2022/04/16 08:33:02;;;;;;;1.13;1.02;;;;;;;20.87;34.71;98016.13;10608571;27;20051;-55
2022/04/16 08:38:22;;;;;;;1.40;1.00;;;;;;;20.90;34.79;98029.88;10602792;27;20059;-52
2022/04/16 08:43:42;;;;;;;1.10;1.00;;;;;;;20.91;34.83;98023.38;10616361;27;20058;-55
2022/04/16 08:49:02;;;;;;;1.20;1.10;;;;;;;20.94;34.88;98024.66;10592222;27;20059;-55
2022/04/16 08:54:25;;;;;;;1.35;1.20;;;;;;;20.96;34.97;98027.88;10610843;27;20050;-55
2022/04/16 08:59:50;;;;;;;1.27;1.17;;;;;;;20.97;35.03;98029.47;10616961;28;20051;-54
2022/04/16 09:05:11;;;;;;;0.90;0.90;;;;;;;20.98;35.12;98039.19;10609918;28;20131;-53
2022/04/16 09:10:32;;;;;;;1.00;0.90;;;;;;;20.98;35.16;98046.53;10607089;28;20047;-54
2022/04/16 09:16:02;;;;;;;1.10;0.85;;;;;;;20.99;35.21;98050.84;10612237;28;20074;-52
2022/04/16 09:21:29;;;;;;;0.80;0.80;;;;;;;21.01;35.20;98054.03;10574930;28;20054;-54
2022/04/16 09:26:49;;;;;;;1.00;0.80;;;;;;;21.02;35.60;98061.88;10580925;28;20433;-55
2022/04/16 09:32:08;;;;;;;0.90;0.90;;;;;;;21.03;35.29;98068.91;10613863;28;20116;-55
2022/04/16 09:37:33;;;;;;;0.80;0.80;;;;;;;21.03;35.41;98078.91;10599191;27;20104;-56
2022/04/16 09:42:54;;;;;;;1.10;1.00;;;;;;;21.02;35.47;98086.25;10599591;27;20248;-56
2022/04/16 09:48:14;;;;;;;1.48;1.05;;;;;;;21.03;35.60;98093.28;10619911;27;20705;-55
2022/04/16 09:53:36;;;;;;;1.38;0.90;;;;;;;21.02;35.62;98088.97;10611526;27;20048;-54
2022/04/16 09:58:57;;;;;;;1.02;0.88;;;;;;;21.03;35.72;98096.00;10605127;27;20058;-56
2022/04/16 10:04:17;;;;;;;0.98;0.85;;;;;;;21.04;35.89;98097.59;10579123;28;20425;-56
2022/04/16 10:09:41;;;;;;;0.80;0.80;;;;;;;21.03;35.77;98096.00;10598325;27;20040;-52
2022/04/16 10:15:21;;;;;;;0.80;0.80;;;;;;;21.04;35.78;98110.34;10605964;27;20056;-54
2022/04/16 10:21:16;;;;;;;1.02;0.70;;;;;;;21.03;35.97;98104.13;10569216;28;20555;-55
2022/04/16 10:26:37;;;;;;;0.88;0.80;;;;;;;21.04;36.01;98100.31;10593166;27;20522;-52
2022/04/16 10:31:57;;;;;;;0.70;0.68;;;;;;;21.04;36.03;98105.72;10616761;27;20043;-55
2022/04/16 10:37:22;;;;;;;0.85;0.80;;;;;;;21.05;36.14;98107.34;10617499;27;20420;-51
2022/04/16 10:43:07;;;;;;;0.70;0.70;;;;;;;21.04;36.17;98110.34;10602834;27;20083;-55
2022/04/16 10:48:38;;;;;;;0.77;0.77;;;;;;;21.05;36.21;98120.06;10592945;27;20051;-53
2022/04/16 10:54:06;;;;;;;0.85;0.70;;;;;;;21.04;36.36;98110.34;10582940;27;20413;-53
2022/04/16 10:59:37;;;;;;;0.85;0.82;;;;;;;21.03;36.42;98109.56;10586977;27;20036;-55
2022/04/16 11:05:00;;;;;;;2.25;0.90;;;;;;;21.02;36.53;98112.56;10593984;27;20051;-55
2022/04/16 11:10:23;;;;;;;1.00;0.80;;;;;;;21.02;36.55;98117.97;10603601;27;20073;-55
2022/04/16 11:15:42;;;;;;;2.35;0.80;;;;;;;21.01;36.66;98111.75;10593151;27;20103;-52
2022/04/16 11:21:06;;;;;;;0.70;0.70;;;;;;;21.01;36.71;98105.50;10586013;27;20067;-56
2022/04/16 11:37:55;;;;;;;0.70;0.70;;;;;;;20.98;36.88;98108.84;10624063;27;20059;-55
2022/04/16 11:43:14;;;;;;;0.68;0.68;;;;;;;20.97;36.95;98099.91;10588744;27;20055;-54
2022/04/16 11:48:33;;;;;;;0.60;0.60;;;;;;;20.98;36.96;98101.50;10566468;27;20052;-53
2022/04/16 11:53:53;;;;;;;0.70;0.60;;;;;;;20.98;36.98;98087.97;10579447;27;20047;-53
2022/04/16 11:59:22;;;;;;;0.75;0.70;;;;;;;20.96;37.19;98092.88;10593118;27;20062;-52
2022/04/16 12:04:43;;;;;;;1.10;0.90;;;;;;;20.96;36.88;98087.47;10595237;27;20070;-54
2022/04/16 12:10:04;;;;;;;0.70;0.70;;;;;;;20.95;36.86;98091.25;10579460;28;20058;-54
2022/04/16 12:15:26;;;;;;;0.60;0.60;;;;;;;20.93;36.72;98078.03;10606865;27;20043;-53
2022/04/16 12:20:48;;;;;;;0.90;0.80;;;;;;;20.93;36.72;98091.59;10579305;27;20059;-56
2022/04/16 12:26:09;;;;;;;0.82;0.80;;;;;;;20.91;36.64;98084.84;10590077;27;20047;-54
2022/04/16 12:31:29;;;;;;;1.17;0.80;;;;;;;20.92;36.93;98097.31;10583632;27;20055;-56
2022/04/16 12:36:49;;;;;;;0.70;0.68;;;;;;;20.91;36.94;98095.69;10581928;27;20454;-56
2022/04/16 12:42:08;;;;;;;0.60;0.60;;;;;;;20.90;37.03;98097.59;10607406;27;20505;-55
2022/04/16 12:47:27;;;;;;;0.70;0.70;;;;;;;20.91;37.12;98095.69;10597158;27;20054;-55
2022/04/16 12:52:47;;;;;;;0.75;0.70;;;;;;;20.89;37.06;98101.41;10620078;27;20054;-53
2022/04/16 12:58:07;;;;;;;1.00;0.90;;;;;;;20.90;37.25;98096.81;10633637;27;20053;-54
2022/04/16 13:03:26;;;;;;;1.33;0.77;;;;;;;20.90;37.29;98088.69;10619704;28;20043;-57
2022/04/16 13:08:46;;;;;;;2.03;1.10;;;;;;;20.90;37.30;98092.19;10602049;28;20078;-56
2022/04/16 13:14:05;;;;;;;1.65;0.98;;;;;;;20.90;37.32;98089.47;10598888;27;20040;-55
2022/04/16 13:19:25;;;;;;;1.98;1.30;;;;;;;20.89;37.42;98087.84;10595225;27;20143;-55
2022/04/16 13:24:45;;;;;;;1.67;1.00;;;;;;;20.90;37.49;98092.19;10607480;27;20464;-53
2022/04/16 13:30:06;;;;;;;1.15;0.90;;;;;;;20.88;37.48;98083.56;10595810;27;20081;-52
2022/04/16 13:35:25;;;;;;;2.97;1.50;;;;;;;20.87;37.57;98100.91;10609585;27;20043;-56
2022/04/16 13:46:23;;;;;;;2.65;1.08;;;;;;;20.78;31.01;98082.94;10594116;27;20051;-52
2022/04/16 13:51:43;;;;;;;1.50;1.10;;;;;;;20.69;31.98;98078.22;10608691;27;20039;-54
2022/04/16 13:57:03;;;;;;;4.05;1.65;;;;;;;20.71;34.07;98075.22;10592976;27;20108;-53
2022/04/16 14:02:22;;;;;;;4.63;1.80;;;;;;;20.72;34.38;98068.72;10627465;27;20123;-55
2022/04/16 14:07:43;;;;;;;4.28;1.65;;;;;;;20.73;34.83;98075.72;10627857;27;20065;-56
2022/04/16 14:13:02;;;;;;;3.28;1.50;;;;;;;20.74;35.01;98077.34;10641743;27;20050;-53
2022/04/16 14:18:22;;;;;;;4.88;1.70;;;;;;;20.74;35.25;98077.34;10627655;27;20055;-54
2022/04/16 14:23:41;;;;;;;6.25;2.13;;;;;;;20.76;35.47;98077.03;10625498;27;20085;-54
2022/04/16 14:29:01;;;;;;;5.25;2.20;;;;;;;20.77;35.63;98067.81;10627205;27;20051;-55
2022/04/16 14:34:20;;;;;;;2.78;1.67;;;;;;;20.77;35.84;98078.66;10637847;27;20039;-54
2022/04/16 14:39:39;;;;;;;3.35;1.73;;;;;;;20.77;36.02;98067.81;10640655;27;20091;-54
2022/04/16 14:45:00;;;;;;;2.97;2.08;;;;;;;20.77;36.18;98079.44;10625745;27;20063;-54
2022/04/16 14:50:20;;;;;;;5.80;2.00;;;;;;;20.77;36.32;98074.03;10639339;27;20071;-55
2022/04/16 14:55:40;;;;;;;2.90;1.80;;;;;;;20.80;36.50;98069.94;10625603;27;20074;-52
2022/04/16 15:01:00;;;;;;;5.03;2.15;;;;;;;20.81;36.65;98071.53;10624567;27;20050;-55
2022/04/16 15:06:19;;;;;;;2.67;1.80;;;;;;;20.80;36.87;98048.25;10625094;27;20130;-53
2022/04/16 15:11:39;;;;;;;6.22;2.13;;;;;;;20.80;37.03;98051.75;10625499;27;20130;-55
2022/04/16 15:16:59;;;;;;;4.55;1.83;;;;;;;20.81;37.28;98060.69;10625257;27;20058;-54
2022/04/16 15:22:19;;;;;;;4.00;1.70;;;;;;;20.82;37.35;98054.19;10623318;27;20070;-55
2022/04/16 15:27:38;;;;;;;4.57;1.70;;;;;;;20.81;37.71;98047.94;10624166;27;20057;-56
2022/04/16 15:32:58;;;;;;;3.47;1.83;;;;;;;20.81;37.64;98060.69;10624113;27;20112;-56
2022/04/16 15:38:18;;;;;;;4.60;1.83;;;;;;;20.82;37.75;98054.19;10624433;27;20451;-56
2022/04/16 15:43:38;;;;;;;3.42;1.90;;;;;;;20.83;37.84;98050.34;10628439;27;20047;-53
2022/04/16 15:48:57;;;;;;;3.33;1.50;;;;;;;20.83;37.89;98066.59;10636973;27;20038;-54
2022/04/16 15:54:17;;;;;;;3.38;1.52;;;;;;;20.83;37.93;98061.19;10637324;27;20042;-52
2022/04/16 15:59:38;;;;;;;2.42;1.63;;;;;;;20.83;38.07;98074.72;10622576;27;20047;-56
2022/04/16 16:05:01;;;;;;;3.03;1.52;;;;;;;20.83;38.11;98067.41;10636979;27;20042;-56
2022/04/16 16:10:20;;;;;;;3.42;1.40;;;;;;;20.83;38.16;98063.91;10623225;27;20059;-53
2022/04/16 16:15:40;;;;;;;2.00;1.35;;;;;;;20.85;38.18;98065.19;10623099;27;20512;-54
2022/04/16 16:20:59;;;;;;;3.30;1.40;;;;;;;20.85;38.25;98075.22;10621952;27;20055;-55
2022/04/16 16:26:20;;;;;;;2.40;1.50;;;;;;;20.82;38.23;98073.94;10622262;27;20122;-56
2022/04/16 16:31:40;;;;;;;2.83;1.58;;;;;;;20.81;38.38;98077.72;10635975;27;20067;-56
2022/04/16 16:37:02;;;;;;;4.20;1.73;;;;;;;20.80;38.42;98075.34;10579058;28;20054;-56
2022/04/16 16:42:22;;;;;;;2.42;1.40;;;;;;;20.77;38.49;98073.22;10578817;28;20065;-56
2022/04/16 16:47:41;;;;;;;3.13;1.40;;;;;;;20.76;38.37;98077.84;10578816;28;20534;-53
2022/04/16 16:53:01;;;;;;;2.33;1.33;;;;;;;20.74;38.51;98071.94;10592003;28;20050;-54
2022/04/16 16:58:20;;;;;;;1.73;1.30;;;;;;;20.73;38.52;98073.03;10596463;27;20104;-55
2022/04/16 17:09:19;;;;;;;2.80;1.57;;;;;;;20.71;38.59;98080.66;10621121;27;20490;-55
2022/04/16 17:20:18;;;;;;;2.70;1.40;;;;;;;20.69;38.49;98088.25;10620969;28;20577;-56
2022/04/16 17:25:38;;;;;;;1.92;1.23;;;;;;;20.67;38.56;98085.06;10624575;27;20042;-55
2022/04/16 17:30:57;;;;;;;2.05;1.10;;;;;;;20.65;38.55;98088.06;10620885;28;20051;-53
2022/04/16 17:36:17;;;;;;;1.50;1.10;;;;;;;20.64;38.58;98097.31;10620844;28;20132;-56
2022/04/16 17:41:37;;;;;;;1.83;1.10;;;;;;;20.64;38.58;98100.00;10620362;28;20505;-56
2022/04/16 17:46:57;;;;;;;1.60;1.00;;;;;;;20.62;38.64;98099.50;10620502;28;20047;-53
2022/04/16 17:52:17;;;;;;;1.48;1.00;;;;;;;20.63;38.72;98111.13;10633515;27;20473;-56
2022/04/16 17:57:37;;;;;;;2.80;1.20;;;;;;;20.59;38.60;98108.22;10622553;27;20069;-54
2022/04/16 18:02:57;;;;;;;1.83;1.05;;;;;;;20.59;38.57;98119.03;10628421;27;20047;-54
2022/04/16 18:08:18;;;;;;;1.52;1.20;;;;;;;20.57;38.64;98115.81;10641794;27;20072;-53
2022/04/16 18:13:38;;;;;;;1.17;1.02;;;;;;;20.56;38.60;98116.88;10627929;27;20047;-54
2022/04/16 18:18:57;;;;;;;1.40;1.00;;;;;;;20.55;38.59;98131.53;10627553;27;20131;-56
2022/04/16 18:24:19;;;;;;;2.13;1.20;;;;;;;20.54;38.66;98141.56;10627077;27;20047;-56
2022/04/16 18:29:39;;;;;;;3.80;1.10;;;;;;;20.52;38.60;98143.78;10627232;27;20486;-56
2022/04/16 18:35:00;;;;;;;1.60;1.00;;;;;;;20.52;38.58;98153.78;10626941;27;20050;-53
2022/04/16 18:40:19;;;;;;;1.80;1.10;;;;;;;20.49;38.57;98154.41;10626873;27;20403;-56
2022/04/16 18:45:39;;;;;;;2.80;0.95;;;;;;;20.48;38.66;98159.00;10626434;27;20047;-56
2022/04/16 18:50:58;;;;;;;1.40;1.00;;;;;;;20.49;38.66;98162.50;10624857;27;20055;-56
2022/04/16 18:56:18;;;;;;;1.30;0.88;;;;;;;20.46;38.77;98161.19;10625871;27;20532;-52
2022/04/16 19:07:15;;;;;;;1.90;1.00;;;;;;;20.44;38.62;98159.88;10625556;27;20052;-54
2022/04/16 19:12:35;;;;;;;2.28;1.00;;;;;;;20.43;38.69;98167.22;10624612;27;20058;-56
2022/04/16 19:17:54;;;;;;;1.48;0.90;;;;;;;20.41;38.80;98165.91;10629512;27;20035;-56
2022/04/16 19:23:14;;;;;;;2.08;0.90;;;;;;;20.41;38.72;98168.63;10624490;27;20063;-53
2022/04/16 19:28:34;;;;;;;1.50;1.00;;;;;;;20.38;38.63;98155.66;10625175;27;20551;-56
2022/04/16 19:33:54;;;;;;;1.15;1.00;;;;;;;20.37;38.71;98167.59;10624505;27;20051;-53
2022/04/16 19:39:14;;;;;;;1.10;0.90;;;;;;;20.35;38.69;98171.41;10624519;27;20055;-56
2022/04/16 19:44:34;;;;;;;1.17;0.80;;;;;;;20.34;38.79;98172.47;10623365;27;20138;-55
2022/04/16 19:49:53;;;;;;;1.23;0.90;;;;;;;20.33;38.70;98176.31;10623275;27;20051;-55
2022/04/16 19:55:12;;;;;;;1.05;0.88;;;;;;;20.31;38.74;98181.22;10637569;27;20513;-53
2022/04/16 20:00:32;;;;;;;1.40;1.05;;;;;;;20.30;38.69;98178.78;10623258;27;20055;-53
2022/04/16 20:05:51;;;;;;;1.15;1.00;;;;;;;20.28;38.67;98179.06;10623189;27;20051;-56
2022/04/16 20:11:14;;;;;;;0.85;0.80;;;;;;;20.28;38.73;98176.38;10623160;27;20512;-55
2022/04/16 20:16:33;;;;;;;2.45;1.00;;;;;;;20.26;38.73;98173.16;10607806;27;20055;-56
2022/04/16 20:21:54;;;;;;;2.22;1.00;;;;;;;20.24;38.72;98169.94;10621749;27;20070;-55
2022/04/16 20:27:18;;;;;;;1.02;0.70;;;;;;;20.25;38.72;98171.56;10621622;27;20047;-52
2022/04/16 20:32:37;;;;;;;1.05;0.95;;;;;;;20.22;38.74;98166.72;10627905;27;20038;-54
2022/04/16 20:37:56;;;;;;;1.27;0.82;;;;;;;20.23;38.83;98172.94;10622339;27;20494;-55
2022/04/16 20:48:55;;;;;;;1.27;1.03;;;;;;;20.19;38.81;98175.47;10621031;27;20103;-55
2022/04/16 20:54:14;;;;;;;1.10;0.90;;;;;;;20.18;38.85;98168.44;10621812;27;20410;-55
2022/04/16 20:59:34;;;;;;;1.10;0.80;;;;;;;20.18;38.75;98154.09;10619129;27;20088;-53
2022/04/16 21:04:54;;;;;;;1.23;0.90;;;;;;;20.14;38.71;98151.97;10620972;27;20051;-54
2022/04/16 21:10:13;;;;;;;1.25;0.90;;;;;;;20.12;38.79;98162.28;10621225;28;20098;-52
2022/04/16 21:15:32;;;;;;;1.25;0.80;;;;;;;20.11;38.79;98165.28;10621421;28;20126;-55
2022/04/16 21:20:54;;;;;;;1.05;0.90;;;;;;;20.10;38.85;98160.97;10621346;28;20047;-54
2022/04/16 21:26:13;;;;;;;1.52;0.90;;;;;;;20.09;38.92;98168.31;10620952;28;20107;-56
2022/04/16 21:31:33;;;;;;;1.00;0.90;;;;;;;20.08;38.84;98165.88;10635969;27;20069;-56
2022/04/16 21:36:53;;;;;;;1.00;0.80;;;;;;;20.07;38.86;98169.69;10643247;27;20043;-54
2022/04/16 21:42:12;;;;;;;1.17;0.77;;;;;;;20.06;38.76;98159.97;10628972;27;20062;-54
2022/04/16 21:47:31;;;;;;;0.75;0.73;;;;;;;20.04;38.91;98162.97;10629070;27;20047;-54
2022/04/16 21:52:50;;;;;;;1.00;0.88;;;;;;;20.02;38.84;98165.16;10641646;27;20039;-55
2022/04/16 21:58:10;;;;;;;0.60;0.60;;;;;;;20.01;38.79;98166.25;10628437;27;20058;-55
2022/04/16 22:03:29;;;;;;;0.93;0.90;;;;;;;20.01;38.81;98181.69;10627954;27;20047;-55
2022/04/16 22:08:49;;;;;;;1.20;0.73;;;;;;;19.99;38.92;98176.56;10628195;27;20054;-56
2022/04/16 22:14:08;;;;;;;0.70;0.70;;;;;;;19.98;38.94;98174.16;10627202;27;20051;-56
2022/04/16 22:19:28;;;;;;;0.68;0.68;;;;;;;19.97;38.89;98183.34;10627722;27;20051;-55
2022/04/16 22:24:48;;;;;;;1.08;0.70;;;;;;;19.95;38.85;98189.06;10638668;27;20039;-52
2022/04/16 22:30:08;;;;;;;0.85;0.80;;;;;;;19.93;38.87;98186.66;10641020;27;20035;-56
2022/04/16 22:35:28;;;;;;;1.23;0.90;;;;;;;19.93;38.90;98191.25;10627059;27;20043;-55
2022/04/16 22:40:59;;;;;;;1.48;1.00;;;;;;;19.91;38.88;98186.13;10626552;27;20055;-55
2022/04/16 22:46:20;;;;;;;1.17;0.90;;;;;;;19.88;38.81;98184.03;10625531;27;20058;-54
2022/04/16 22:51:39;;;;;;;1.15;0.95;;;;;;;19.89;38.89;98182.91;10625858;27;20051;-56
2022/04/16 22:56:58;;;;;;;1.30;0.90;;;;;;;19.88;38.77;98183.22;10626063;27;20047;-55
2022/04/16 23:02:18;;;;;;;1.08;0.90;;;;;;;19.86;38.93;98180.00;10632219;27;20043;-52
2022/04/16 23:07:37;;;;;;;0.85;0.70;;;;;;;19.86;38.99;98177.31;10625759;27;20062;-54
2022/04/16 23:12:57;;;;;;;1.17;0.90;;;;;;;19.84;38.93;98168.69;10625535;27;20059;-52
2022/04/16 23:18:17;;;;;;;0.93;0.77;;;;;;;19.82;39.03;98166.28;10624830;27;20133;-56
2022/04/16 23:23:36;;;;;;;1.00;0.90;;;;;;;19.81;38.91;98161.94;10625036;27;20401;-55
2022/04/16 23:28:56;;;;;;;0.73;0.70;;;;;;;19.80;39.10;98154.13;10624964;27;20112;-56
2022/04/16 23:34:15;;;;;;;1.60;0.90;;;;;;;19.78;38.95;98146.31;10624008;27;20047;-55
2022/04/16 23:39:35;;;;;;;0.80;0.73;;;;;;;19.77;39.05;98144.69;10638308;27;20043;-55
2022/04/16 23:50:34;;;;;;;1.03;0.97;;;;;;;19.74;38.99;98139.88;10622661;27;20059;-56
2022/04/16 23:55:54;;;;;;;1.25;0.88;;;;;;;19.73;39.06;98135.56;10623109;27;20058;-55
